Chemical Pioneer — KAFO — position and weather

sailwx.info

Track history (hours):
 
Tides and Currents Weather Stations Pressure Air Temp Water Temp Dewpoint Dewpoint Depression Visibility Wind Speed Wind Dir Waves Ship Positions

Chemical Pioneer

Owner: US Shipping Corp, Edison, NJ. More information available from US FCC via Universal Licensing System and Coast Guard Vessel Documentation Center.

Last reported at 2016-Apr-29 01:23 UTC. Time now 2016-May-01 13:40 UTC.
Position N 25°32' W 080°01'.

Type: Tanker. MMSI: 366032000.

Date/timePositionNaut miles runAvg speedWind from/ knotsBaromVisibWave heightAir tempDewpointWater temp
2016-Apr-29 01:23N 25°32' W 080°01'1112.8
2016-Apr-29 00:33N 25°43' W 080°01'1313.0
2016-Apr-28 23:33N 25°56' W 080°00'1312.9
2016-Apr-28 22:33N 26°08' W 080°03'10 9.5
2016-Apr-28 21:34N 26°16' W 079°58'1313.2
2016-Apr-28 20:33N 26°30' W 079°57'1312.7
2016-Apr-28 19:33N 26°42' W 079°56'1212.4
2016-Apr-28 18:33N 26°55' W 079°55'1212.3
2016-Apr-28 17:33N 27°07' W 079°57'22115.4
2016-Apr-28 03:12N 30°46' W 080°31'1014.5
2016-Apr-28 02:32N 30°55' W 080°27'1515.7
2016-Apr-28 01:33N 31°06' W 080°14'1615.8
2016-Apr-28 00:33N 31°17' W 080°00'1616.0
2016-Apr-27 23:33N 31°28' W 079°46'1615.7
2016-Apr-27 22:33N 31°38' W 079°33'1615.9
2016-Apr-27 21:33N 31°49' W 079°20'1615.7
2016-Apr-27 20:33N 32°00' W 079°06'1616.0
2016-Apr-27 19:33N 32°12' W 078°53'13215.8
2016-Apr-27 11:11N 33°43' W 076°59'1015.5
2016-Apr-27 10:33N 33°50' W 076°50'1515.0
2016-Apr-27 09:32N 34°01' W 076°37'1515.1
2016-Apr-27 08:33N 34°11' W 076°24'1515.0
2016-Apr-27 07:33N 34°21' W 076°11'1514.7
2016-Apr-27 06:33N 34°32' W 075°58'1514.5
2016-Apr-27 05:32N 34°42' W 075°45'1614.8
2016-Apr-27 04:28N 34°53' W 075°31'1313.2
2016-Apr-27 03:28N 35°02' W 075°20'1111.7
2016-Apr-27 02:32N 35°10' W 075°11'281 8.7
2016-Apr-25 18:22N 39°51' W 075°16'0 0.0
2016-Apr-25 17:28N 39°51' W 075°16'0 0.0
2016-Apr-25 16:30N 39°51' W 075°16'0 0.0
2016-Apr-25 15:28N 39°51' W 075°16'0 0.0
2016-Apr-25 14:31N 39°51' W 075°16'0 0.0
2016-Apr-25 13:31N 39°51' W 075°16'0 0.0
2016-Apr-25 12:33N 39°51' W 075°16'0 0.0
2016-Apr-25 11:34N 39°51' W 075°16'0 0.0
2016-Apr-25 10:33N 39°51' W 075°16'0 0.0
2016-Apr-25 09:33N 39°51' W 075°16'0 0.0
2016-Apr-25 08:33N 39°51' W 075°16'0 0.0
2016-Apr-25 07:33N 39°51' W 075°16'0 0.0
2016-Apr-25 06:33N 39°51' W 075°16'0 0.0
2016-Apr-25 05:33N 39°51' W 075°16'0 0.0
2016-Apr-25 04:33N 39°51' W 075°16'0 0.0
2016-Apr-25 03:33N 39°51' W 075°16'0 0.0
2016-Apr-25 02:33N 39°51' W 075°16'0 0.0
2016-Apr-25 01:33N 39°51' W 075°16'0 0.0
2016-Apr-25 00:33N 39°51' W 075°16'4 3.9
2016-Apr-24 23:33N 39°53' W 075°12'7 7.4
2016-Apr-24 22:33N 39°59' W 075°05'0 0.4
2016-Apr-24 21:29N 39°59' W 075°05'0 0.0
2016-Apr-24 20:29N 39°59' W 075°05'0 0.0
2016-Apr-24 19:32N 39°59' W 075°05'0 0.0
2016-Apr-24 18:32N 39°59' W 075°05'0 0.0
2016-Apr-24 17:32N 39°59' W 075°05'0 0.0
2016-Apr-24 16:31N 39°59' W 075°05'0 0.0
2016-Apr-24 15:33N 39°59' W 075°05'0 0.0
2016-Apr-24 14:33N 39°59' W 075°05'0 0.0
2016-Apr-24 13:33N 39°59' W 075°05'0 0.0
2016-Apr-24 12:33N 39°59' W 075°05'0 0.0
2016-Apr-24 11:33N 39°59' W 075°05'0 0.0
2016-Apr-24 10:34N 39°59' W 075°05'0 0.0
2016-Apr-24 09:33N 39°59' W 075°05'0 0.0
2016-Apr-24 08:33N 39°59' W 075°05'0 0.0
2016-Apr-24 07:33N 39°59' W 075°05'0 0.0
2016-Apr-24 06:33N 39°59' W 075°05'0 0.0
2016-Apr-24 05:33N 39°59' W 075°05'0 0.0
2016-Apr-24 04:33N 39°59' W 075°05'0 0.0
2016-Apr-24 03:33N 39°59' W 075°05'0 0.0
2016-Apr-24 02:33N 39°59' W 075°05'0 0.0
2016-Apr-24 01:33N 39°59' W 075°05'0 0.0
2016-Apr-24 00:33N 39°59' W 075°05'0 0.0
2016-Apr-23 23:33N 39°59' W 075°05'0 0.0
2016-Apr-23 22:33N 39°59' W 075°05'0 0.0
2016-Apr-23 21:33N 39°59' W 075°05'0 0.3
2016-Apr-23 20:34N 39°59' W 075°05'0 0.5
2016-Apr-23 19:34N 39°59' W 075°06'0 0.0
2016-Apr-23 15:33N 39°59' W 075°06'0 0.0
2016-Apr-23 14:33N 39°59' W 075°06'0 0.0
2016-Apr-23 13:33N 39°59' W 075°06'0 0.0
2016-Apr-23 12:33N 39°59' W 075°06'0 0.0
2016-Apr-23 11:33N 39°59' W 075°06'0 0.0
2016-Apr-23 10:33N 39°59' W 075°06'0 0.0
2016-Apr-23 09:33N 39°59' W 075°06'0 0.0
2016-Apr-23 08:33N 39°59' W 075°06'0 0.0
2016-Apr-23 07:33N 39°59' W 075°06'0 0.0
2016-Apr-23 06:33N 39°59' W 075°06'0 0.0
2016-Apr-23 05:33N 39°59' W 075°06'0 0.0
2016-Apr-23 04:33N 39°59' W 075°06'0 0.0
2016-Apr-23 03:33N 39°59' W 075°06'0 0.0
2016-Apr-23 02:33N 39°59' W 075°06'0 0.0
2016-Apr-23 01:33N 39°59' W 075°06'0 0.0
2016-Apr-23 00:33N 39°59' W 075°06'0 0.0
2016-Apr-22 23:33N 39°59' W 075°06'0 0.0
2016-Apr-22 22:33N 39°59' W 075°06'0 0.0
2016-Apr-22 21:33N 39°59' W 075°06'0 0.0
2016-Apr-22 20:33N 39°59' W 075°06'0 0.0
2016-Apr-22 19:33N 39°59' W 075°06'0 0.0
2016-Apr-22 18:33N 39°59' W 075°06'0 0.0
2016-Apr-22 17:33N 39°59' W 075°06'0 0.0
2016-Apr-22 16:33N 39°59' W 075°06'0 0.0
2016-Apr-22 15:33N 39°59' W 075°06'0 0.0
2016-Apr-22 14:27N 39°59' W 075°06'0 0.0
2016-Apr-22 13:30N 39°59' W 075°06'0 0.0
2016-Apr-22 12:33N 39°59' W 075°06'0 0.0
2016-Apr-22 11:33N 39°59' W 075°06'0 0.0
2016-Apr-22 10:33N 39°59' W 075°06'0 0.0
2016-Apr-22 09:33N 39°59' W 075°06'0 0.0
2016-Apr-22 08:33N 39°59' W 075°06'0 0.0
2016-Apr-22 07:33N 39°59' W 075°06'1 1.5
2016-Apr-22 06:33N 39°58' W 075°08'5 5.3
2016-Apr-22 05:33N 39°53' W 075°10'9 9.4
2016-Apr-22 04:34N 39°50' W 075°22'3 2.6
2016-Apr-22 03:33N 39°48' W 075°24'0 0.0
2016-Apr-22 02:33N 39°48' W 075°24'0 0.0
2016-Apr-22 01:33N 39°48' W 075°24'0 0.2
2016-Apr-22 00:33N 39°48' W 075°24'0 0.0
2016-Apr-21 23:33N 39°48' W 075°24'0 0.0
2016-Apr-21 22:33N 39°48' W 075°24'0 0.0
2016-Apr-21 21:33N 39°48' W 075°24'0 0.1
2016-Apr-21 20:33N 39°48' W 075°24'0 0.2
2016-Apr-21 19:33N 39°48' W 075°24'0 0.1
2016-Apr-21 18:33N 39°48' W 075°24'0 0.0
2016-Apr-21 17:33N 39°48' W 075°24'0 0.0
2016-Apr-21 16:34N 39°48' W 075°24'5 4.8
2016-Apr-21 15:34N 39°45' W 075°29'1212.2
2016-Apr-21 14:34N 39°33' W 075°33'1515.1
2016-Apr-21 13:34N 39°20' W 075°25'1616.1
2016-Apr-21 12:34N 39°07' W 075°12'1616.0
2016-Apr-21 11:34N 38°52' W 075°05'7 6.7
2016-Apr-21 10:33N 38°48' W 074°58'9 8.9
2016-Apr-21 09:33N 38°48' W 074°46'8 7.8
2016-Apr-21 08:33N 38°48' W 074°36'8 7.7
2016-Apr-21 07:33N 38°48' W 074°26'8 8.1
2016-Apr-21 06:33N 38°48' W 074°16'8 8.1
2016-Apr-21 05:33N 38°48' W 074°06'8 8.2
2016-Apr-21 04:33N 38°48' W 073°55'9 8.7
2016-Apr-21 03:33N 38°48' W 073°44'1312.5
2016-Apr-21 02:33N 38°48' W 073°28'10 9.5
2016-Apr-21 01:33N 38°56' W 073°20'1712.7
2016-Apr-21 00:12N 39°13' W 073°21'812.1
2016-Apr-20 23:33N 39°21' W 073°21'1212.0
2016-Apr-20 22:33N 39°33' W 073°21'1211.9
2016-Apr-20 21:32N 39°45' W 073°21'45 8.8
2016-Apr-20 16:25N 40°24' W 073°51'8 8.9
2016-Apr-20 15:33N 40°29' W 073°59'13 0.6
2016-Apr-19 16:29N 40°33' W 074°15'3 3.2
2016-Apr-19 15:32N 40°29' W 074°15'1010.2
2016-Apr-19 14:34N 40°29' W 074°02'6 6.0
2016-Apr-19 13:33N 40°25' W 073°55'0 0.1
2016-Apr-19 11:28N 40°25' W 073°55'0 0.0
2016-Apr-19 10:28N 40°25' W 073°55'0 0.1
2016-Apr-19 09:31N 40°25' W 073°55'0 0.0
2016-Apr-19 08:22N 40°25' W 073°55'0 0.0
2016-Apr-19 07:28N 40°25' W 073°55'0 0.1
2016-Apr-19 06:31N 40°25' W 073°55'0 0.0
2016-Apr-19 05:31N 40°25' W 073°55'0 0.1
2016-Apr-19 04:28N 40°25' W 073°55'0 0.1
2016-Apr-19 03:33N 40°25' W 073°55'2 1.7
2016-Apr-19 02:33N 40°27' W 073°56'10 9.9
2016-Apr-19 01:30N 40°30' W 074°09'  
Track history (hours):
 
Tides and Currents Weather Stations Pressure Air Temp Water Temp Dewpoint Dewpoint Depression Visibility Wind Speed Wind Dir Waves Ship Positions

Chemical Pioneer

Owner: US Shipping Corp, Edison, NJ. More information available from US FCC via Universal Licensing System and Coast Guard Vessel Documentation Center.

Last reported at 2016-Apr-29 01:23 UTC. Time now 2016-May-01 13:40 UTC.
Position N 25°32' W 080°01'.

Type: Tanker. MMSI: 366032000.

Date/timePositionNaut miles runAvg speedWind from/ knotsBaromVisibWave heightAir tempDewpointWater temp
2016-Apr-29 01:23N 25°32' W 080°01'1112.8
2016-Apr-29 00:33N 25°43' W 080°01'1313.0
2016-Apr-28 23:33N 25°56' W 080°00'1312.9
2016-Apr-28 22:33N 26°08' W 080°03'10 9.5
2016-Apr-28 21:34N 26°16' W 079°58'1313.2
2016-Apr-28 20:33N 26°30' W 079°57'1312.7
2016-Apr-28 19:33N 26°42' W 079°56'1212.4
2016-Apr-28 18:33N 26°55' W 079°55'1212.3
2016-Apr-28 17:33N 27°07' W 079°57'22115.4
2016-Apr-28 03:12N 30°46' W 080°31'1014.5
2016-Apr-28 02:32N 30°55' W 080°27'1515.7
2016-Apr-28 01:33N 31°06' W 080°14'1615.8
2016-Apr-28 00:33N 31°17' W 080°00'1616.0
2016-Apr-27 23:33N 31°28' W 079°46'1615.7
2016-Apr-27 22:33N 31°38' W 079°33'1615.9
2016-Apr-27 21:33N 31°49' W 079°20'1615.7
2016-Apr-27 20:33N 32°00' W 079°06'1616.0
2016-Apr-27 19:33N 32°12' W 078°53'13215.8
2016-Apr-27 11:11N 33°43' W 076°59'1015.5
2016-Apr-27 10:33N 33°50' W 076°50'1515.0
2016-Apr-27 09:32N 34°01' W 076°37'1515.1
2016-Apr-27 08:33N 34°11' W 076°24'1515.0
2016-Apr-27 07:33N 34°21' W 076°11'1514.7
2016-Apr-27 06:33N 34°32' W 075°58'1514.5
2016-Apr-27 05:32N 34°42' W 075°45'1614.8
2016-Apr-27 04:28N 34°53' W 075°31'1313.2
2016-Apr-27 03:28N 35°02' W 075°20'1111.7
2016-Apr-27 02:32N 35°10' W 075°11'281 8.7
2016-Apr-25 18:22N 39°51' W 075°16'0 0.0
2016-Apr-25 17:28N 39°51' W 075°16'0 0.0
2016-Apr-25 16:30N 39°51' W 075°16'0 0.0
2016-Apr-25 15:28N 39°51' W 075°16'0 0.0
2016-Apr-25 14:31N 39°51' W 075°16'0 0.0
2016-Apr-25 13:31N 39°51' W 075°16'0 0.0
2016-Apr-25 12:33N 39°51' W 075°16'0 0.0
2016-Apr-25 11:34N 39°51' W 075°16'0 0.0
2016-Apr-25 10:33N 39°51' W 075°16'0 0.0
2016-Apr-25 09:33N 39°51' W 075°16'0 0.0
2016-Apr-25 08:33N 39°51' W 075°16'0 0.0
2016-Apr-25 07:33N 39°51' W 075°16'0 0.0
2016-Apr-25 06:33N 39°51' W 075°16'0 0.0
2016-Apr-25 05:33N 39°51' W 075°16'0 0.0
2016-Apr-25 04:33N 39°51' W 075°16'0 0.0
2016-Apr-25 03:33N 39°51' W 075°16'0 0.0
2016-Apr-25 02:33N 39°51' W 075°16'0 0.0
2016-Apr-25 01:33N 39°51' W 075°16'0 0.0
2016-Apr-25 00:33N 39°51' W 075°16'4 3.9
2016-Apr-24 23:33N 39°53' W 075°12'7 7.4
2016-Apr-24 22:33N 39°59' W 075°05'0 0.4
2016-Apr-24 21:29N 39°59' W 075°05'0 0.0
2016-Apr-24 20:29N 39°59' W 075°05'0 0.0
2016-Apr-24 19:32N 39°59' W 075°05'0 0.0
2016-Apr-24 18:32N 39°59' W 075°05'0 0.0
2016-Apr-24 17:32N 39°59' W 075°05'0 0.0
2016-Apr-24 16:31N 39°59' W 075°05'0 0.0
2016-Apr-24 15:33N 39°59' W 075°05'0 0.0
2016-Apr-24 14:33N 39°59' W 075°05'0 0.0
2016-Apr-24 13:33N 39°59' W 075°05'0 0.0
2016-Apr-24 12:33N 39°59' W 075°05'0 0.0
2016-Apr-24 11:33N 39°59' W 075°05'0 0.0
2016-Apr-24 10:34N 39°59' W 075°05'0 0.0
2016-Apr-24 09:33N 39°59' W 075°05'0 0.0
2016-Apr-24 08:33N 39°59' W 075°05'0 0.0
2016-Apr-24 07:33N 39°59' W 075°05'0 0.0
2016-Apr-24 06:33N 39°59' W 075°05'0 0.0
2016-Apr-24 05:33N 39°59' W 075°05'0 0.0
2016-Apr-24 04:33N 39°59' W 075°05'0 0.0
2016-Apr-24 03:33N 39°59' W 075°05'0 0.0
2016-Apr-24 02:33N 39°59' W 075°05'0 0.0
2016-Apr-24 01:33N 39°59' W 075°05'0 0.0
2016-Apr-24 00:33N 39°59' W 075°05'0 0.0
2016-Apr-23 23:33N 39°59' W 075°05'0 0.0
2016-Apr-23 22:33N 39°59' W 075°05'0 0.0
2016-Apr-23 21:33N 39°59' W 075°05'0 0.3
2016-Apr-23 20:34N 39°59' W 075°05'0 0.5
2016-Apr-23 19:34N 39°59' W 075°06'0 0.0
2016-Apr-23 15:33N 39°59' W 075°06'0 0.0
2016-Apr-23 14:33N 39°59' W 075°06'0 0.0
2016-Apr-23 13:33N 39°59' W 075°06'0 0.0
2016-Apr-23 12:33N 39°59' W 075°06'0 0.0
2016-Apr-23 11:33N 39°59' W 075°06'0 0.0
2016-Apr-23 10:33N 39°59' W 075°06'0 0.0
2016-Apr-23 09:33N 39°59' W 075°06'0 0.0
2016-Apr-23 08:33N 39°59' W 075°06'0 0.0
2016-Apr-23 07:33N 39°59' W 075°06'0 0.0
2016-Apr-23 06:33N 39°59' W 075°06'0 0.0
2016-Apr-23 05:33N 39°59' W 075°06'0 0.0
2016-Apr-23 04:33N 39°59' W 075°06'0 0.0
2016-Apr-23 03:33N 39°59' W 075°06'0 0.0
2016-Apr-23 02:33N 39°59' W 075°06'0 0.0
2016-Apr-23 01:33N 39°59' W 075°06'0 0.0
2016-Apr-23 00:33N 39°59' W 075°06'0 0.0
2016-Apr-22 23:33N 39°59' W 075°06'0 0.0
2016-Apr-22 22:33N 39°59' W 075°06'0 0.0
2016-Apr-22 21:33N 39°59' W 075°06'0 0.0
2016-Apr-22 20:33N 39°59' W 075°06'0 0.0
2016-Apr-22 19:33N 39°59' W 075°06'0 0.0
2016-Apr-22 18:33N 39°59' W 075°06'0 0.0
2016-Apr-22 17:33N 39°59' W 075°06'0 0.0
2016-Apr-22 16:33N 39°59' W 075°06'0 0.0
2016-Apr-22 15:33N 39°59' W 075°06'0 0.0
2016-Apr-22 14:27N 39°59' W 075°06'0 0.0
2016-Apr-22 13:30N 39°59' W 075°06'0 0.0
2016-Apr-22 12:33N 39°59' W 075°06'0 0.0
2016-Apr-22 11:33N 39°59' W 075°06'0 0.0
2016-Apr-22 10:33N 39°59' W 075°06'0 0.0
2016-Apr-22 09:33N 39°59' W 075°06'0 0.0
2016-Apr-22 08:33N 39°59' W 075°06'0 0.0
2016-Apr-22 07:33N 39°59' W 075°06'1 1.5
2016-Apr-22 06:33N 39°58' W 075°08'5 5.3
2016-Apr-22 05:33N 39°53' W 075°10'9 9.4
2016-Apr-22 04:34N 39°50' W 075°22'3 2.6
2016-Apr-22 03:33N 39°48' W 075°24'0 0.0
2016-Apr-22 02:33N 39°48' W 075°24'0 0.0
2016-Apr-22 01:33N 39°48' W 075°24'0 0.2
2016-Apr-22 00:33N 39°48' W 075°24'0 0.0
2016-Apr-21 23:33N 39°48' W 075°24'0 0.0
2016-Apr-21 22:33N 39°48' W 075°24'0 0.0
2016-Apr-21 21:33N 39°48' W 075°24'0 0.1
2016-Apr-21 20:33N 39°48' W 075°24'0 0.2
2016-Apr-21 19:33N 39°48' W 075°24'0 0.1
2016-Apr-21 18:33N 39°48' W 075°24'0 0.0
2016-Apr-21 17:33N 39°48' W 075°24'0 0.0
2016-Apr-21 16:34N 39°48' W 075°24'5 4.8
2016-Apr-21 15:34N 39°45' W 075°29'1212.2
2016-Apr-21 14:34N 39°33' W 075°33'1515.1
2016-Apr-21 13:34N 39°20' W 075°25'1616.1
2016-Apr-21 12:34N 39°07' W 075°12'1616.0
2016-Apr-21 11:34N 38°52' W 075°05'7 6.7
2016-Apr-21 10:33N 38°48' W 074°58'9 8.9
2016-Apr-21 09:33N 38°48' W 074°46'8 7.8
2016-Apr-21 08:33N 38°48' W 074°36'8 7.7
2016-Apr-21 07:33N 38°48' W 074°26'8 8.1
2016-Apr-21 06:33N 38°48' W 074°16'8 8.1
2016-Apr-21 05:33N 38°48' W 074°06'8 8.2
2016-Apr-21 04:33N 38°48' W 073°55'9 8.7
2016-Apr-21 03:33N 38°48' W 073°44'1312.5
2016-Apr-21 02:33N 38°48' W 073°28'10 9.5
2016-Apr-21 01:33N 38°56' W 073°20'1712.7
2016-Apr-21 00:12N 39°13' W 073°21'812.1
2016-Apr-20 23:33N 39°21' W 073°21'1212.0
2016-Apr-20 22:33N 39°33' W 073°21'1211.9
2016-Apr-20 21:32N 39°45' W 073°21'45 8.8
2016-Apr-20 16:25N 40°24' W 073°51'8 8.9
2016-Apr-20 15:33N 40°29' W 073°59'13 0.6
2016-Apr-19 16:29N 40°33' W 074°15'3 3.2
2016-Apr-19 15:32N 40°29' W 074°15'1010.2
2016-Apr-19 14:34N 40°29' W 074°02'6 6.0
2016-Apr-19 13:33N 40°25' W 073°55'0 0.1
2016-Apr-19 11:28N 40°25' W 073°55'0 0.0
2016-Apr-19 10:28N 40°25' W 073°55'0 0.1
2016-Apr-19 09:31N 40°25' W 073°55'0 0.0
2016-Apr-19 08:22N 40°25' W 073°55'0 0.0
2016-Apr-19 07:28N 40°25' W 073°55'0 0.1
2016-Apr-19 06:31N 40°25' W 073°55'0 0.0
2016-Apr-19 05:31N 40°25' W 073°55'0 0.1
2016-Apr-19 04:28N 40°25' W 073°55'0 0.1
2016-Apr-19 03:33N 40°25' W 073°55'2 1.7
2016-Apr-19 02:33N 40°27' W 073°56'10 9.9
2016-Apr-19 01:30N 40°30' W 074°09'  

Dump ship's entire track history